Time,TemperatureF,DewpointF,PressureIn,WindDirection,WindDirectionDegrees,WindSpeedMPH,WindSpeedGustMPH,Humidity,HourlyPrecipIn,Conditions,Clouds,dailyrainin,SoftwareType,DateUTC
2013-11-17 00:21:00,33.0,23.0,29.48,WNW,286,9.0,13.0,66,0.00,,,0.00,,2013-11-17 07:21:00,
2013-11-17 00:42:00,32.0,23.0,29.49,West,261,8.0,11.0,70,0.00,,,0.00,,2013-11-17 07:42:00,
2013-11-17 00:53:00,33.0,23.0,29.49,West,280,10.0,13.0,67,0.00,,,0.00,,2013-11-17 07:53:00,
2013-11-17 01:12:00,33.0,23.0,29.50,West,275,10.0,13.0,66,0.00,,,0.00,,2013-11-17 08:12:00,
2013-11-17 01:21:00,32.0,22.0,29.51,WNW,289,11.0,14.0,66,0.00,,,0.00,,2013-11-17 08:21:00,
2013-11-17 02:21:00,30.0,19.0,29.55,NW,317,327.0,327.0,63,0.00,,,0.00,,2013-11-17 09:21:00,
2013-11-17 02:42:00,28.0,18.0,29.56,NW,317,7.0,8.0,66,0.00,,,0.00,,2013-11-17 09:42:00,
2013-11-17 02:53:00,28.0,17.0,29.58,NW,314,6.0,7.0,64,0.00,,,0.00,,2013-11-17 09:53:00,
2013-11-17 03:13:00,25.0,17.0,29.59,NNW,342,7.0,8.0,70,0.00,,,0.00,,2013-11-17 10:13:00,
2013-11-17 03:23:00,26.0,17.0,29.60,NNW,337,4.0,8.0,68,0.00,,,0.00,,2013-11-17 10:23:00,
2013-11-17 03:42:00,25.0,16.0,29.61,SSE,165,6.0,8.0,67,0.00,,,0.00,,2013-11-17 10:42:00,
2013-11-17 03:53:00,25.0,18.0,29.61,SSE,165,1.0,4.0,73,0.00,,,0.00,,2013-11-17 10:53:00,
2013-11-17 04:42:00,24.0,18.0,29.64,NNW,344,6.0,8.0,76,0.00,,,0.00,,2013-11-17 11:42:00,
2013-11-17 04:52:00,24.0,17.0,29.65,NNW,341,5.0,9.0,74,0.00,,,0.00,,2013-11-17 11:52:00,
2013-11-17 05:21:00,22.0,16.0,29.66,NW,322,4.0,9.0,78,0.00,,,0.00,,2013-11-17 12:21:00,
2013-11-17 05:42:00,25.0,18.0,29.66,NNW,335,1.0,9.0,73,0.00,,,0.00,,2013-11-17 12:42:00,
2013-11-17 05:52:00,22.0,15.0,29.67,North,350,6.0,9.0,73,0.00,,,0.00,,2013-11-17 12:52:00,
2013-11-17 06:21:00,21.0,16.0,29.68,NW,326,6.0,8.0,79,0.00,,,0.00,,2013-11-17 13:21:00,
2013-11-17 06:42:00,21.0,15.0,29.69,NW,320,7.0,9.0,78,0.00,,,0.00,,2013-11-17 13:42:00,
2013-11-17 06:52:00,23.0,16.0,29.70,NW,325,1.0,5.0,75,0.00,,,0.00,,2013-11-17 13:52:00,
2013-11-17 07:21:00,21.0,15.0,29.72,NNW,331,0.0,8.0,78,0.00,,,0.00,,2013-11-17 14:21:00,
2013-11-17 07:42:00,20.0,15.0,29.73,WNW,303,3.0,7.0,82,0.00,,,0.00,,2013-11-17 14:42:00,
2013-11-17 07:52:00,25.0,18.0,29.74,NNW,347,3.0,5.0,75,0.00,,,0.00,,2013-11-17 14:52:00,
2013-11-17 08:11:00,25.0,16.0,29.75,WNW,287,3.0,7.0,69,0.00,,,0.00,,2013-11-17 15:11:00,
2013-11-17 08:22:00,24.0,16.0,29.75,NNW,333,2.0,7.0,70,0.00,,,0.00,,2013-11-17 15:22:00,
2013-11-17 08:54:00,26.0,19.0,29.77,NNW,340,4.0,6.0,74,0.00,,,0.00,,2013-11-17 15:54:00,
2013-11-17 09:12:00,29.0,20.0,29.77,NNW,332,0.0,6.0,68,0.00,,,0.00,,2013-11-17 16:12:00,
2013-11-17 09:23:00,33.0,18.0,29.78,NNW,333,0.0,1.0,54,0.00,,,0.00,,2013-11-17 16:23:00,
2013-11-17 09:42:00,35.0,17.0,29.78,ENE,78,1.0,4.0,48,0.00,,,0.00,,2013-11-17 16:42:00,
2013-11-17 09:53:00,37.0,17.0,29.79,SSE,166,0.0,5.0,43,0.00,,,0.00,,2013-11-17 16:53:00,
2013-11-17 10:22:00,40.0,13.0,29.80,SSW,205,10.0,20.0,32,0.00,,,0.00,,2013-11-17 17:22:00,
2013-11-17 10:43:00,37.0,17.0,29.81,ESE,102,4.0,7.0,44,0.00,,,0.00,,2013-11-17 17:43:00,
2013-11-17 10:52:00,37.0,20.0,29.82,East,89,5.0,9.0,50,0.00,,,0.00,,2013-11-17 17:52:00,
2013-11-17 11:12:00,37.0,18.0,29.82,ESE,104,7.0,11.0,46,0.00,,,0.00,,2013-11-17 18:12:00,
2013-11-17 11:23:00,39.0,18.0,29.81,ESE,116,2.0,13.0,42,0.00,,,0.00,,2013-11-17 18:23:00,
2013-11-17 11:42:00,40.0,16.0,29.81,SSE,167,2.0,7.0,38,0.00,,,0.00,,2013-11-17 18:42:00,
2013-11-17 11:52:00,42.0,13.0,29.80,WSW,252,14.0,20.0,30,0.00,,,0.00,,2013-11-17 18:52:00,
2013-11-17 12:11:00,43.0,13.0,29.80,WSW,252,12.0,21.0,29,0.00,,,0.00,,2013-11-17 19:11:00,
2013-11-17 12:21:00,43.0,13.0,29.80,SW,232,15.0,20.0,29,0.00,,,0.00,,2013-11-17 19:21:00,
2013-11-17 12:52:00,43.0,13.0,29.81,SW,234,21.0,29.0,29,0.00,,,0.00,,2013-11-17 19:52:00,
2013-11-17 13:22:00,43.0,13.0,29.81,SW,227,14.0,28.0,29,0.00,,,0.00,,2013-11-17 20:22:00,
2013-11-17 13:42:00,44.0,14.0,29.82,SW,227,10.0,24.0,29,0.00,,,0.00,,2013-11-17 20:42:00,
2013-11-17 13:52:00,44.0,14.0,29.83,SSW,200,11.0,22.0,29,0.00,,,0.00,,2013-11-17 20:52:00,
2013-11-17 14:12:00,44.0,14.0,29.83,SW,217,11.0,19.0,29,0.00,,,0.00,,2013-11-17 21:12:00,
2013-11-17 14:22:00,44.0,14.0,29.83,WSW,241,11.0,18.0,29,0.00,,,0.00,,2013-11-17 21:22:00,
2013-11-17 14:44:00,43.0,13.0,29.83,West,267,10.0,21.0,29,0.00,,,0.00,,2013-11-17 21:44:00,
2013-11-17 14:55:00,44.0,14.0,29.83,West,265,13.0,19.0,29,0.00,,,0.00,,2013-11-17 21:55:00,
2013-11-17 15:13:00,44.0,14.0,29.84,WSW,244,13.0,19.0,29,0.00,,,0.00,,2013-11-17 22:13:00,
2013-11-17 15:24:00,44.0,14.0,29.85,WSW,237,8.0,16.0,29,0.00,,,0.00,,2013-11-17 22:24:00,
2013-11-17 15:43:00,45.0,15.0,29.85,South,182,9.0,14.0,29,0.00,,,0.00,,2013-11-17 22:43:00,
2013-11-17 15:53:00,44.0,13.0,29.86,WSW,239,7.0,12.0,28,0.00,,,0.00,,2013-11-17 22:53:00,
2013-11-17 16:23:00,43.0,14.0,29.86,SSW,197,6.0,10.0,30,0.00,,,0.00,,2013-11-17 23:23:00,
2013-11-17 16:42:00,43.0,14.0,29.86,WSW,238,4.0,6.0,30,0.00,,,0.00,,2013-11-17 23:42:00,
2013-11-17 16:52:00,42.0,14.0,29.87,SW,232,3.0,5.0,31,0.00,,,0.00,,2013-11-17 23:52:00,
2013-11-17 17:11:00,41.0,13.0,29.88,SW,234,7.0,10.0,32,0.00,,,0.00,,2013-11-18 00:11:00,
2013-11-17 17:21:00,41.0,13.0,29.88,SW,225,9.0,13.0,32,0.00,,,0.00,,2013-11-18 00:21:00,
2013-11-17 17:42:00,41.0,13.0,29.89,WSW,247,8.0,21.0,32,0.00,,,0.00,,2013-11-18 00:42:00,
2013-11-17 17:52:00,40.0,13.0,29.90,SW,236,10.0,15.0,33,0.00,,,0.00,,2013-11-18 00:52:00,
2013-11-17 18:22:00,40.0,14.0,29.91,SW,230,9.0,18.0,34,0.00,,,0.00,,2013-11-18 01:22:00,
2013-11-17 18:42:00,41.0,15.0,29.91,SW,232,11.0,16.0,34,0.00,,,0.00,,2013-11-18 01:42:00,
2013-11-17 18:52:00,40.0,15.0,29.91,WSW,256,8.0,12.0,36,0.00,,,0.00,,2013-11-18 01:52:00,
2013-11-17 19:21:00,39.0,15.0,29.92,WSW,257,9.0,12.0,37,0.00,,,0.00,,2013-11-18 02:21:00,
2013-11-17 19:52:00,36.0,15.0,29.93,North,349,4.0,6.0,41,0.00,,,0.00,,2013-11-18 02:52:00,
2013-11-17 20:22:00,31.0,14.0,29.94,NNW,342,0.0,7.0,49,0.00,,,0.00,,2013-11-18 03:22:00,
2013-11-17 20:54:00,30.0,15.0,29.94,NW,321,6.0,8.0,52,0.00,,,0.00,,2013-11-18 03:54:00,
2013-11-17 21:12:00,30.0,14.0,29.94,North,355,1.0,6.0,51,0.00,,,0.00,,2013-11-18 04:12:00,
2013-11-17 21:23:00,29.0,15.0,29.95,North,351,1.0,5.0,55,0.00,,,0.00,,2013-11-18 04:23:00,
2013-11-17 21:42:00,28.0,14.0,29.95,North,350,3.0,6.0,55,0.00,,,0.00,,2013-11-18 04:42:00,
2013-11-17 21:52:00,31.0,15.0,29.95,East,80,4.0,9.0,51,0.00,,,0.00,,2013-11-18 04:52:00,
2013-11-17 22:22:00,32.0,15.0,29.95,SW,218,1.0,5.0,48,0.00,,,0.00,,2013-11-18 05:22:00,
2013-11-17 22:42:00,33.0,15.0,29.96,SE,128,1.0,6.0,48,0.00,,,0.00,,2013-11-18 05:42:00,
2013-11-17 22:53:00,33.0,15.0,29.96,East,101,2.0,7.0,48,0.00,,,0.00,,2013-11-18 05:53:00,
2013-11-17 23:22:00,31.0,16.0,29.95,East,96,0.0,0.0,53,0.00,,,0.00,,2013-11-18 06:22:00,
2013-11-17 23:42:00,30.0,16.0,29.96,East,96,0.0,0.0,56,0.00,,,0.00,,2013-11-18 06:42:00,
2013-11-17 23:52:00,31.0,17.0,29.96,SSE,149,3.0,7.0,56,0.00,,,0.00,,2013-11-18 06:52:00,